Time;durP1;ratioP1;P1;durP2;ratioP2;P2;SDS_P1;SDS_P2;PMS_P1;PMS_P2;Temp;Humidity;BMP_temperature;BMP_pressure;BME280_temperature;BME280_humidity;BME280_pressure;Samples;Min_cycle;Max_cycle;Signal;HPM_P1;HPM_P2
2021/12/01 00:00:22;;;;;;;23.33;9.43;;;;;;;-0.15;83.73;96220.09;5094621;28;20494;-37
2021/12/01 00:02:53;;;;;;;33.83;14.67;;;;;;;-0.24;83.82;96202.91;5094506;28;20999;-37
2021/12/01 00:05:21;;;;;;;20.50;11.90;;;;;;;-0.26;84.67;96202.28;5094588;28;20431;-36
2021/12/01 00:07:49;;;;;;;22.67;10.70;;;;;;;-0.31;84.96;96194.19;5094494;28;20479;-37
2021/12/01 00:10:18;;;;;;;15.77;8.50;;;;;;;-0.30;85.47;96196.63;5094395;28;20442;-37
2021/12/01 00:12:47;;;;;;;11.00;5.97;;;;;;;-0.32;84.94;96192.56;5094410;28;20934;-37
2021/12/01 00:15:15;;;;;;;19.37;9.63;;;;;;;-0.33;84.87;96196.97;5094336;28;20496;-36
2021/12/01 00:17:43;;;;;;;41.93;17.80;;;;;;;-0.30;85.14;96208.84;5093823;28;20884;-36
2021/12/01 00:20:13;;;;;;;32.90;14.90;;;;;;;-0.34;85.14;96190.16;5094207;28;20543;-36
2021/12/01 00:22:43;;;;;;;30.73;14.23;;;;;;;-0.34;85.23;96186.75;5094254;28;21017;-37
2021/12/01 00:25:12;;;;;;;33.77;12.80;;;;;;;-0.34;85.22;96184.16;5094515;28;20522;-37
2021/12/01 00:27:42;;;;;;;19.10;8.47;;;;;;;-0.33;85.24;96183.13;5094106;28;20995;-37
2021/12/01 00:30:11;;;;;;;15.30;7.77;;;;;;;-0.32;85.14;96182.13;5094015;28;20474;-38
2021/12/01 00:32:39;;;;;;;11.30;6.70;;;;;;;-0.30;85.41;96180.16;5094334;28;20465;-39
2021/12/01 00:35:08;;;;;;;16.10;6.20;;;;;;;-0.27;85.29;96182.41;5094015;28;20785;-38
2021/12/01 00:37:36;;;;;;;12.53;5.73;;;;;;;-0.28;85.46;96175.56;5094011;28;20443;-39
2021/12/01 00:40:05;;;;;;;16.33;6.90;;;;;;;-0.27;85.33;96167.56;5093891;28;20641;-38
2021/12/01 00:42:32;;;;;;;14.80;7.93;;;;;;;-0.23;85.13;96181.06;5093899;28;20446;-39
2021/12/01 00:45:06;;;;;;;19.97;7.40;;;;;;;-0.21;85.11;96171.25;5093964;28;20438;-39
2021/12/01 00:47:43;;;;;;;14.70;8.03;;;;;;;-0.21;84.71;96171.25;5093874;28;20902;-38
2021/12/01 00:50:12;;;;;;;9.70;6.00;;;;;;;-0.22;84.37;96156.56;5093819;28;20431;-39
2021/12/01 00:52:40;;;;;;;9.33;4.80;;;;;;;-0.19;84.28;96161.44;5093703;28;20504;-39
2021/12/01 00:55:09;;;;;;;9.00;4.33;;;;;;;-0.33;83.88;96144.00;5094072;28;20582;-38
2021/12/01 00:57:37;;;;;;;20.73;7.80;;;;;;;-0.30;84.00;96141.03;5094062;28;20470;-39
2021/12/01 01:00:06;;;;;;;15.23;5.43;;;;;;;-0.13;84.46;96159.88;5093534;28;20516;-39
2021/12/01 01:02:38;;;;;;;12.60;5.93;;;;;;;-0.14;84.45;96147.84;5093657;28;20474;-39
2021/12/01 01:05:06;;;;;;;25.17;9.40;;;;;;;-0.13;84.16;96139.81;5093674;28;21000;-39
2021/12/01 01:07:34;;;;;;;28.77;10.20;;;;;;;-0.13;83.63;96129.38;5093592;28;20439;-39
2021/12/01 01:10:15;;;;;;;30.47;10.73;;;;;;;-0.12;83.12;96128.38;5093536;28;20447;-39
2021/12/01 01:18:13;;;;;;;19.23;10.17;;;;;;;-0.08;82.73;96131.44;5093581;28;20925;-38
2021/12/01 01:20:41;;;;;;;17.80;9.47;;;;;;;-0.06;82.85;96125.03;5093684;28;20487;-37
2021/12/01 01:23:08;;;;;;;15.67;8.90;;;;;;;-0.02;82.47;96110.63;5093687;28;20859;-37
2021/12/01 01:25:36;;;;;;;17.93;8.50;;;;;;;0.01;83.21;96111.25;5093713;28;20920;-37
2021/12/01 01:28:04;;;;;;;21.27;8.70;;;;;;;0.01;83.25;96100.81;5093180;28;20923;-38
2021/12/01 01:30:32;;;;;;;23.00;8.13;;;;;;;-0.04;83.64;96096.94;5096074;28;20475;-36
2021/12/01 01:32:59;;;;;;;21.67;6.60;;;;;;;-0.18;83.97;96081.34;5097515;28;20474;-37
2021/12/01 01:35:29;;;;;;;20.13;8.13;;;;;;;-0.03;84.79;96111.59;5097458;28;20478;-37
2021/12/01 01:37:56;;;;;;;19.83;7.83;;;;;;;0.01;85.46;96100.81;5097383;28;20457;-37
2021/12/01 01:40:24;;;;;;;15.97;6.30;;;;;;;0.04;86.32;96110.88;5097283;28;20490;-36
2021/12/01 01:42:51;;;;;;;30.17;8.93;;;;;;;0.10;86.94;96099.69;5098146;28;20446;-36
2021/12/01 01:45:19;;;;;;;27.20;10.63;;;;;;;0.10;87.01;96104.91;5097310;28;20493;-40
2021/12/01 01:47:58;;;;;;;22.37;8.40;;;;;;;-0.08;86.73;96080.03;5097251;28;20500;-37
2021/12/01 01:50:36;;;;;;;15.60;7.47;;;;;;;0.09;86.80;96106.72;5097273;28;20488;-37
2021/12/01 01:53:08;;;;;;;16.33;8.50;;;;;;;0.02;86.96;96084.13;5097954;28;20431;-39
2021/12/01 01:55:36;;;;;;;17.20;7.57;;;;;;;0.06;86.92;96074.94;5097059;28;20447;-37
2021/12/01 01:58:04;;;;;;;22.13;9.93;;;;;;;0.22;87.67;96108.63;5097367;28;20478;-37
2021/12/01 02:00:33;;;;;;;16.67;7.20;;;;;;;0.23;87.04;96102.41;5096920;28;20498;-37
2021/12/01 02:03:00;;;;;;;11.70;7.30;;;;;;;0.25;85.79;96095.19;5096873;28;20532;-38
2021/12/01 02:05:29;;;;;;;14.97;6.97;;;;;;;0.23;86.01;96102.41;5096853;28;20453;-37
2021/12/01 02:07:57;;;;;;;13.47;6.80;;;;;;;0.26;85.89;96096.00;5096745;28;20442;-36
2021/12/01 02:10:24;;;;;;;16.37;9.53;;;;;;;0.26;84.48;96088.97;5097119;28;20846;-37
2021/12/01 02:12:52;;;;;;;15.33;6.40;;;;;;;0.28;82.85;96087.00;5097086;28;20443;-38
2021/12/01 02:15:19;;;;;;;24.57;9.97;;;;;;;0.24;82.04;96090.97;5096767;28;20443;-37
2021/12/01 02:17:47;;;;;;;15.43;10.13;;;;;;;0.14;81.69;96087.88;5096746;28;20474;-37
2021/12/01 02:20:20;;;;;;;30.73;11.33;;;;;;;0.20;82.82;96087.13;5096817;28;20555;-37
2021/12/01 02:22:48;;;;;;;16.57;8.73;;;;;;;0.15;81.91;96065.97;5096641;28;20427;-38
2021/12/01 02:25:16;;;;;;;23.70;9.73;;;;;;;0.22;82.03;96089.56;5096772;28;20475;-39
2021/12/01 02:27:43;;;;;;;14.63;8.07;;;;;;;0.22;82.12;96077.31;5096490;28;20479;-37
2021/12/01 02:30:11;;;;;;;12.07;6.87;;;;;;;0.17;82.02;96077.88;5096313;28;20474;-37
2021/12/01 02:32:38;;;;;;;16.07;7.57;;;;;;;0.20;82.73;96092.34;5096397;28;20447;-37
2021/12/01 02:35:07;;;;;;;16.93;6.83;;;;;;;0.21;83.20;96088.72;5096369;28;20853;-37
2021/12/01 02:37:37;;;;;;;13.20;5.70;;;;;;;0.23;83.76;96076.28;5096229;28;20872;-37
2021/12/01 02:40:06;;;;;;;9.27;5.73;;;;;;;0.25;84.07;96074.28;5095989;28;20806;-37
2021/12/01 02:42:33;;;;;;;28.33;8.00;;;;;;;0.27;84.29;96066.28;5096463;28;20521;-38
2021/12/01 02:45:01;;;;;;;17.57;8.63;;;;;;;0.25;84.32;96074.28;5096177;28;20443;-37
2021/12/01 02:47:29;;;;;;;13.90;6.33;;;;;;;0.23;84.40;96071.06;5096105;28;20805;-37
2021/12/01 02:49:56;;;;;;;6.50;3.50;;;;;;;0.19;80.78;96088.94;5096023;28;20439;-38
2021/12/01 02:52:24;;;;;;;2.33;1.60;;;;;;;0.24;77.37;96087.53;5095980;28;20443;-37
2021/12/01 02:54:55;;;;;;;2.00;1.40;;;;;;;0.37;74.86;96077.22;5095884;28;20435;-37
2021/12/01 02:57:23;;;;;;;1.47;1.37;;;;;;;0.45;73.85;96065.81;5095948;28;20419;-37
2021/12/01 02:59:51;;;;;;;1.27;1.17;;;;;;;0.65;71.96;96085.06;5095773;28;20446;-37
2021/12/01 03:02:18;;;;;;;3.13;1.10;;;;;;;0.79;72.10;96086.72;5096158;28;20579;-37
2021/12/01 03:04:46;;;;;;;5.70;1.27;;;;;;;0.88;73.96;96089.19;5095977;28;20475;-36
2021/12/01 03:07:14;;;;;;;1.47;1.30;;;;;;;0.96;73.26;96089.03;5096014;28;20573;-37
2021/12/01 03:09:41;;;;;;;2.10;1.60;;;;;;;1.04;72.96;96088.91;5095748;28;20446;-36
2021/12/01 03:12:11;;;;;;;1.10;1.00;;;;;;;1.08;72.78;96095.34;5096387;28;20522;-38
2021/12/01 03:14:38;;;;;;;5.80;1.57;;;;;;;1.14;73.53;96102.44;5095502;28;20438;-38
2021/12/01 03:17:06;;;;;;;5.13;2.53;;;;;;;1.04;74.09;96088.91;5095506;28;20926;-38
2021/12/01 03:19:33;;;;;;;2.87;1.77;;;;;;;1.16;72.14;96089.97;5095433;28;20446;-38
2021/12/01 03:22:01;;;;;;;1.63;1.40;;;;;;;1.35;71.89;96122.41;5095396;28;20494;-38
2021/12/01 03:24:33;;;;;;;2.77;1.57;;;;;;;1.43;72.35;96113.59;5095300;28;20483;-37
2021/12/01 03:27:01;;;;;;;2.00;1.47;;;;;;;1.50;72.63;96129.34;5095345;28;20919;-38
2021/12/01 03:29:29;;;;;;;2.17;1.40;;;;;;;1.54;70.98;96115.66;5094960;28;20494;-37
2021/12/01 03:31:57;;;;;;;1.73;1.40;;;;;;;1.61;69.99;96113.91;5096122;28;20530;-38
2021/12/01 03:34:25;;;;;;;2.90;1.20;;;;;;;1.58;70.86;96113.47;5095211;28;20443;-38
2021/12/01 03:36:52;;;;;;;1.90;1.30;;;;;;;1.68;71.36;96134.03;5095128;28;20447;-39
2021/12/01 03:39:20;;;;;;;1.43;1.00;;;;;;;1.64;70.75;96116.09;5095077;28;20500;-39
2021/12/01 03:41:48;;;;;;;4.13;3.20;;;;;;;1.74;70.46;96134.06;5094947;28;20482;-38
2021/12/01 03:44:15;;;;;;;2.43;2.23;;;;;;;1.77;70.67;96125.00;5095287;28;20508;-38
2021/12/01 03:46:44;;;;;;;1.57;1.47;;;;;;;1.78;70.87;96142.31;5095003;28;20492;-39
2021/12/01 03:49:11;;;;;;;1.63;1.47;;;;;;;1.80;70.82;96135.88;5095304;28;20443;-39
2021/12/01 03:51:39;;;;;;;1.90;1.80;;;;;;;1.83;71.07;96135.50;5094180;28;20982;-38
2021/12/01 03:54:07;;;;;;;1.37;1.17;;;;;;;1.83;71.35;96139.94;5094823;28;20474;-38
2021/12/01 03:56:35;;;;;;;4.03;1.90;;;;;;;1.85;71.53;96130.06;5095031;28;20456;-39
2021/12/01 03:59:02;;;;;;;2.00;1.90;;;;;;;1.87;70.47;96129.84;5094732;28;20981;-38
2021/12/01 04:01:30;;;;;;;2.80;1.77;;;;;;;1.86;70.94;96144.75;5094516;28;20536;-38
2021/12/01 04:03:59;;;;;;;3.40;1.63;;;;;;;1.90;71.02;96145.97;5094574;28;20538;-38
2021/12/01 04:06:27;;;;;;;1.77;1.30;;;;;;;1.91;70.89;96147.59;5094583;28;20443;-38
2021/12/01 04:08:55;;;;;;;2.67;1.80;;;;;;;1.74;70.40;96107.06;5094798;28;20447;-38
2021/12/01 04:11:22;;;;;;;3.80;3.03;;;;;;;1.83;70.79;96126.84;5094487;28;20500;-38
2021/12/01 04:13:51;;;;;;;1.90;1.70;;;;;;;1.97;69.79;96144.19;5094736;28;20831;-39
2021/12/01 04:16:18;;;;;;;3.20;2.90;;;;;;;1.98;70.45;96140.56;5094416;28;20447;-39
2021/12/01 04:18:46;;;;;;;5.17;3.97;;;;;;;2.00;70.48;96137.75;5094652;28;20526;-38
2021/12/01 04:21:16;;;;;;;5.10;3.37;;;;;;;1.99;70.65;96123.84;5094196;28;20478;-39
2021/12/01 04:23:44;;;;;;;9.97;5.10;;;;;;;2.02;70.69;96127.88;5094263;28;20442;-38
2021/12/01 04:26:15;;;;;;;7.07;4.77;;;;;;;2.01;71.17;96132.31;5094222;28;20447;-37
2021/12/01 04:28:43;;;;;;;10.77;6.40;;;;;;;2.03;71.40;96142.59;5094020;28;20478;-37
2021/12/01 04:31:10;;;;;;;9.63;3.73;;;;;;;2.03;71.82;96140.78;5094024;28;20453;-37
2021/12/01 04:33:37;;;;;;;4.87;4.03;;;;;;;2.05;72.25;96136.16;5094102;28;20439;-39
2021/12/01 04:36:05;;;;;;;6.03;3.33;;;;;;;2.05;71.88;96133.53;5094073;28;20486;-37
2021/12/01 04:38:34;;;;;;;5.37;3.77;;;;;;;2.04;71.79;96124.06;5093975;28;20561;-37
2021/12/01 04:41:02;;;;;;;4.23;2.97;;;;;;;2.01;72.51;96129.69;5093887;28;21041;-37
2021/12/01 04:43:30;;;;;;;15.53;5.97;;;;;;;2.03;72.77;96129.50;5093856;28;20442;-37
2021/12/01 04:46:00;;;;;;;14.93;7.13;;;;;;;2.05;73.02;96127.50;5093855;28;20446;-37
2021/12/01 04:48:27;;;;;;;15.67;6.07;;;;;;;2.03;73.79;96135.53;5093818;28;20439;-37
2021/12/01 04:50:55;;;;;;;30.70;10.77;;;;;;;2.07;73.19;96143.03;5093790;28;20478;-38
2021/12/01 04:53:25;;;;;;;14.50;7.20;;;;;;;2.07;73.15;96137.78;5093737;28;20439;-37
2021/12/01 04:55:55;;;;;;;13.50;7.47;;;;;;;2.11;72.86;96141.59;5093765;28;20443;-37
2021/12/01 04:58:22;;;;;;;4.17;3.30;;;;;;;2.13;73.73;96142.19;5094040;28;20442;-37
2021/12/01 05:00:50;;;;;;;8.63;3.73;;;;;;;2.15;73.99;96150.66;5093846;28;20565;-37
2021/12/01 05:03:17;;;;;;;7.63;3.63;;;;;;;2.15;73.83;96154.13;5093607;28;21008;-37
2021/12/01 05:05:45;;;;;;;7.87;3.80;;;;;;;2.16;74.04;96139.19;5093893;28;20443;-36
2021/12/01 05:08:12;;;;;;;7.27;4.53;;;;;;;2.19;73.92;96149.25;5093555;28;20478;-37
2021/12/01 05:10:40;;;;;;;10.17;6.40;;;;;;;2.21;75.07;96157.72;5093540;28;20447;-37
2021/12/01 05:13:09;;;;;;;8.10;6.00;;;;;;;2.20;76.12;96156.13;5093723;28;20776;-38
2021/12/01 05:15:36;;;;;;;7.40;5.33;;;;;;;2.17;77.22;96151.28;5093517;28;20503;-37
2021/12/01 05:18:04;;;;;;;7.70;5.90;;;;;;;2.15;77.70;96153.28;5093715;28;20526;-37
2021/12/01 05:20:31;;;;;;;15.90;9.10;;;;;;;2.14;78.45;96157.72;5093392;28;20534;-37
2021/12/01 05:22:58;;;;;;;34.10;12.27;;;;;;;2.11;78.77;96158.13;5090953;28;20563;-37
2021/12/01 05:25:26;;;;;;;77.40;26.50;;;;;;;2.10;78.94;96158.31;5091593;28;20443;-37
2021/12/01 05:27:54;;;;;;;139.77;42.97;;;;;;;2.09;79.47;96161.94;5091174;28;20500;-39
2021/12/01 05:30:23;;;;;;;90.50;36.93;;;;;;;2.04;79.69;96163.34;5091288;28;20519;-37
2021/12/01 05:32:50;;;;;;;61.97;40.20;;;;;;;1.94;80.22;96162.91;5091397;28;20535;-38
2021/12/01 05:35:17;;;;;;;209.30;101.87;;;;;;;1.99;80.67;96175.41;5090863;28;20993;-38
2021/12/01 05:37:45;;;;;;;73.90;40.00;;;;;;;1.99;80.28;96180.66;5091264;28;20447;-38
2021/12/01 05:40:13;;;;;;;69.77;31.90;;;;;;;2.01;80.04;96196.97;5091145;28;20447;-38
2021/12/01 05:42:40;;;;;;;36.10;17.90;;;;;;;2.03;79.29;96197.59;5091060;28;20495;-37
2021/12/01 05:45:08;;;;;;;28.20;14.50;;;;;;;2.08;79.59;96199.59;5091253;28;20526;-38
2021/12/01 05:47:37;;;;;;;22.97;15.57;;;;;;;2.11;79.68;96205.28;5090628;28;20913;-38
2021/12/01 05:50:05;;;;;;;26.60;16.30;;;;;;;2.15;79.83;96203.03;5091442;28;20526;-37
2021/12/01 05:52:33;;;;;;;15.33;11.50;;;;;;;2.11;81.14;96204.44;5091047;28;20447;-37
2021/12/01 05:55:01;;;;;;;28.33;17.13;;;;;;;2.19;81.42;96225.22;5091088;28;20492;-37
2021/12/01 05:57:28;;;;;;;23.10;12.83;;;;;;;2.19;81.61;96218.16;5091401;28;20504;-38
2021/12/01 05:59:55;;;;;;;15.30;13.57;;;;;;;2.18;81.75;96210.53;5091332;28;20515;-39
2021/12/01 06:02:23;;;;;;;31.37;15.47;;;;;;;2.20;82.00;96213.75;5090590;28;20526;-38
2021/12/01 06:04:52;;;;;;;29.80;19.17;;;;;;;2.22;81.71;96211.75;5091022;28;20442;-38
2021/12/01 06:07:19;;;;;;;29.30;16.53;;;;;;;2.25;81.10;96200.84;5091153;28;20995;-39
2021/12/01 06:09:47;;;;;;;25.17;18.37;;;;;;;2.28;80.94;96192.63;5091060;28;20447;-38
2021/12/01 06:12:15;;;;;;;21.63;12.50;;;;;;;2.31;80.79;96207.94;5091051;28;20482;-38
2021/12/01 06:14:43;;;;;;;36.20;22.17;;;;;;;2.34;81.04;96215.38;5090557;28;20487;-39
2021/12/01 06:17:12;;;;;;;32.33;18.70;;;;;;;2.37;81.58;96209.75;5094293;28;20966;-39
2021/12/01 06:19:39;;;;;;;18.27;14.27;;;;;;;2.42;82.01;96211.78;5094725;28;20542;-37
2021/12/01 06:22:09;;;;;;;18.57;10.60;;;;;;;2.46;81.93;96203.31;5094516;28;20490;-38
2021/12/01 06:24:37;;;;;;;12.20;8.10;;;;;;;2.53;81.33;96205.16;5094487;28;20446;-37
2021/12/01 06:27:05;;;;;;;9.70;5.57;;;;;;;2.53;80.73;96186.81;5094087;28;20522;-37
2021/12/01 06:29:32;;;;;;;5.83;5.37;;;;;;;2.69;80.49;96194.28;5094226;28;20557;-37
2021/12/01 06:32:00;;;;;;;27.33;11.90;;;;;;;2.72;80.25;96186.00;5094335;28;20526;-39
2021/12/01 06:34:27;;;;;;;41.00;15.70;;;;;;;2.71;80.18;96173.94;5094628;28;20443;-38
2021/12/01 06:36:55;;;;;;;31.60;12.80;;;;;;;2.62;80.26;96185.59;5094313;28;20533;-38
2021/12/01 06:39:24;;;;;;;63.83;28.67;;;;;;;2.82;79.56;96202.16;5094227;28;21037;-38
2021/12/01 06:41:54;;;;;;;82.30;35.93;;;;;;;2.85;79.32;96206.97;5093746;28;20494;-37
2021/12/01 06:44:21;;;;;;;46.00;20.30;;;;;;;2.86;79.45;96203.38;5094364;28;20492;-38
2021/12/01 06:46:49;;;;;;;43.73;19.00;;;;;;;2.79;79.59;96205.16;5094142;28;20548;-39
2021/12/01 06:49:16;;;;;;;87.77;43.50;;;;;;;2.93;79.83;96215.66;5094331;28;20530;-38
2021/12/01 06:51:44;;;;;;;175.90;75.93;;;;;;;2.93;79.75;96223.53;5094329;28;20854;-38
2021/12/01 06:54:15;;;;;;;104.43;46.50;;;;;;;3.04;80.18;96228.97;5093560;28;20451;-38
2021/12/01 06:56:43;;;;;;;58.73;31.07;;;;;;;3.12;79.81;96214.84;5093848;28;21303;-38
2021/12/01 06:59:11;;;;;;;24.93;11.50;;;;;;;2.95;79.84;96179.56;5093927;28;20447;-38
2021/12/01 07:01:38;;;;;;;115.77;37.50;;;;;;;3.22;79.27;96196.06;5093717;28;20982;-38
2021/12/01 07:04:06;;;;;;;65.33;27.57;;;;;;;3.22;79.25;96203.94;5093715;28;20451;-38
2021/12/01 07:06:33;;;;;;;97.50;36.67;;;;;;;3.21;79.29;96208.38;5093285;28;20995;-38
2021/12/01 07:09:01;;;;;;;152.83;51.87;;;;;;;3.24;79.37;96207.16;5093585;28;20492;-38
2021/12/01 07:11:28;;;;;;;66.63;24.43;;;;;;;3.24;79.28;96200.09;5093543;28;20439;-38
2021/12/01 07:13:57;;;;;;;26.80;13.50;;;;;;;3.23;79.10;96193.25;5093510;28;20943;-38
2021/12/01 07:16:26;;;;;;;23.03;10.43;;;;;;;3.25;79.03;96180.72;5093484;28;20466;-39
2021/12/01 07:18:53;;;;;;;6.97;5.50;;;;;;;3.20;79.02;96171.84;5093252;28;20439;-38
2021/12/01 07:21:20;;;;;;;8.60;6.87;;;;;;;3.32;78.29;96185.16;5093102;28;20474;-39
2021/12/01 07:23:48;;;;;;;14.10;6.73;;;;;;;3.49;77.86;96187.13;5093442;28;20504;-38
2021/12/01 07:26:16;;;;;;;13.53;7.50;;;;;;;3.72;77.11;96195.53;5093307;28;20838;-37
2021/12/01 07:28:43;;;;;;;16.33;8.13;;;;;;;3.90;76.00;96214.06;5093042;28;21028;-39
2021/12/01 07:31:12;;;;;;;17.20;9.83;;;;;;;4.04;75.56;96223.53;5093125;28;20439;-38
2021/12/01 07:33:39;;;;;;;13.40;7.97;;;;;;;4.16;75.57;96222.84;5092775;28;20447;-38
2021/12/01 07:36:08;;;;;;;12.90;8.20;;;;;;;4.04;75.40;96205.13;5093167;28;20534;-38
2021/12/01 07:38:35;;;;;;;12.07;8.33;;;;;;;4.25;74.63;96227.66;5093434;28;20443;-38
2021/12/01 07:41:03;;;;;;;11.93;7.03;;;;;;;4.44;74.11;96236.44;5093546;28;20447;-38
2021/12/01 07:43:30;;;;;;;7.23;5.43;;;;;;;4.67;74.16;96240.38;5092883;28;20526;-38
2021/12/01 07:46:00;;;;;;;9.50;4.47;;;;;;;5.02;72.86;96247.81;5092542;28;20443;-38
2021/12/01 07:48:30;;;;;;;5.70;4.07;;;;;;;5.38;70.74;96230.47;5093290;28;20443;-38
2021/12/01 07:50:57;;;;;;;6.50;5.07;;;;;;;5.77;70.80;96236.41;5094656;28;20475;-38
2021/12/01 07:53:25;;;;;;;9.30;6.53;;;;;;;5.87;70.33;96229.59;5094918;28;20500;-38
2021/12/01 07:55:52;;;;;;;13.53;7.30;;;;;;;5.89;70.20;96242.53;5094903;28;20454;-38
2021/12/01 07:58:23;;;;;;;6.63;5.50;;;;;;;5.82;70.30;96236.53;5092787;28;20497;-39
2021/12/01 08:00:50;;;;;;;12.30;4.87;;;;;;;5.74;70.39;96241.09;5092975;28;20435;-38
2021/12/01 08:03:18;;;;;;;5.47;4.33;;;;;;;5.68;70.02;96233.25;5092518;28;20490;-38
2021/12/01 08:05:47;;;;;;;6.93;4.83;;;;;;;5.64;69.87;96243.41;5092566;28;20443;-38
2021/12/01 08:08:15;;;;;;;3.57;3.13;;;;;;;5.68;69.59;96241.97;5092591;28;20972;-39
2021/12/01 08:10:42;;;;;;;6.00;3.97;;;;;;;5.62;70.37;96258.63;5092005;28;20447;-39
2021/12/01 08:13:10;;;;;;;9.97;5.10;;;;;;;5.58;70.58;96267.19;5092815;28;20923;-39
2021/12/01 08:15:37;;;;;;;4.97;2.70;;;;;;;5.54;70.72;96266.81;5092580;28;20914;-38
2021/12/01 08:18:04;;;;;;;5.97;4.33;;;;;;;5.53;69.90;96262.56;5092350;28;20529;-39
2021/12/01 08:20:33;;;;;;;10.23;7.33;;;;;;;5.49;70.38;96280.63;5092299;28;20496;-39
2021/12/01 08:23:02;;;;;;;9.17;6.10;;;;;;;5.46;71.25;96285.50;5092223;28;20491;-38
2021/12/01 08:25:29;;;;;;;11.77;7.70;;;;;;;5.43;72.14;96285.94;5091852;28;20992;-38
2021/12/01 08:27:57;;;;;;;12.20;7.13;;;;;;;5.39;72.17;96275.03;5092644;28;20538;-39
2021/12/01 08:30:24;;;;;;;11.23;7.60;;;;;;;5.31;72.46;96270.88;5092091;28;20523;-39
2021/12/01 08:32:53;;;;;;;13.17;8.47;;;;;;;5.46;72.21;96283.69;5091997;28;20504;-39
2021/12/01 08:35:23;;;;;;;19.00;10.33;;;;;;;5.52;72.51;96279.38;5091929;28;20443;-38
2021/12/01 08:37:51;;;;;;;21.47;12.40;;;;;;;5.59;71.95;96290.66;5091512;28;20443;-38
2021/12/01 08:40:20;;;;;;;16.53;11.27;;;;;;;5.62;72.60;96295.50;5091908;28;20439;-38
2021/12/01 08:42:47;;;;;;;23.63;11.67;;;;;;;5.60;72.14;96281.75;5091881;28;20486;-38
2021/12/01 08:45:15;;;;;;;25.23;13.80;;;;;;;5.73;72.89;96272.91;5091862;28;20554;-38
2021/12/01 08:47:43;;;;;;;34.60;15.63;;;;;;;5.90;72.37;96267.88;5091851;28;20607;-38
2021/12/01 08:50:12;;;;;;;17.57;10.20;;;;;;;6.13;71.82;96270.69;5093460;28;20443;-38
2021/12/01 08:52:41;;;;;;;19.13;9.80;;;;;;;6.53;69.97;96259.63;5093925;28;20988;-38
2021/12/01 08:55:09;;;;;;;15.27;7.30;;;;;;;6.87;69.09;96254.69;5093741;28;20482;-38
2021/12/01 08:57:39;;;;;;;9.80;6.77;;;;;;;7.11;67.74;96249.47;5093749;28;20496;-38
2021/12/01 09:00:08;;;;;;;9.67;6.20;;;;;;;7.43;66.07;96259.72;5093999;28;20491;-38
2021/12/01 09:02:35;;;;;;;5.90;4.87;;;;;;;7.46;65.59;96256.63;5093602;28;20483;-38
2021/12/01 09:05:02;;;;;;;11.67;6.10;;;;;;;7.41;64.60;96267.06;5093664;28;20489;-38
2021/12/01 09:07:30;;;;;;;11.33;7.03;;;;;;;7.41;65.16;96270.50;5093626;28;20435;-38
2021/12/01 09:09:57;;;;;;;8.03;5.53;;;;;;;7.37;64.57;96264.88;5093849;28;20443;-38
2021/12/01 09:12:25;;;;;;;8.70;4.67;;;;;;;7.33;63.35;96263.72;5093816;28;20501;-38
2021/12/01 09:14:55;;;;;;;5.60;4.27;;;;;;;7.29;64.74;96259.97;5093515;28;20474;-38
2021/12/01 09:17:23;;;;;;;9.07;5.53;;;;;;;7.23;64.38;96254.75;5093514;28;20443;-38
2021/12/01 09:19:52;;;;;;;6.73;5.67;;;;;;;7.16;65.27;96260.13;5093479;28;20533;-38
2021/12/01 09:22:21;;;;;;;14.40;6.70;;;;;;;7.17;64.79;96264.41;5093354;28;20566;-37
2021/12/01 09:24:49;;;;;;;23.40;8.03;;;;;;;7.15;66.39;96272.53;5093399;28;20449;-37
2021/12/01 09:27:17;;;;;;;50.33;18.30;;;;;;;7.12;66.48;96266.91;5090705;28;20868;-38
2021/12/01 09:29:45;;;;;;;33.73;14.33;;;;;;;7.10;66.89;96269.00;5091333;28;20496;-38
2021/12/01 09:32:15;;;;;;;15.30;10.00;;;;;;;7.02;66.88;96271.97;5091227;28;20537;-38
2021/12/01 09:34:44;;;;;;;45.03;16.43;;;;;;;6.93;67.12;96263.56;5091755;28;20523;-37
2021/12/01 09:37:12;;;;;;;17.07;8.43;;;;;;;6.86;68.12;96257.56;5093261;28;20455;-37
2021/12/01 09:39:39;;;;;;;17.30;6.87;;;;;;;6.81;67.78;96266.16;5093309;28;20463;-37
2021/12/01 09:42:10;;;;;;;5.07;3.00;;;;;;;6.80;66.75;96264.56;5093355;28;20443;-37
2021/12/01 09:44:51;;;;;;;28.30;13.27;;;;;;;6.64;67.35;96254.63;5091046;28;20451;-38
2021/12/01 09:47:20;;;;;;;4.77;3.67;;;;;;;6.87;66.63;96262.63;5091354;28;20434;-38
2021/12/01 09:49:50;;;;;;;5.37;3.63;;;;;;;6.91;66.06;96260.34;5091114;28;20523;-38
2021/12/01 09:52:18;;;;;;;4.33;3.00;;;;;;;6.84;65.01;96239.34;5095368;28;20811;-38
2021/12/01 09:54:46;;;;;;;4.77;1.90;;;;;;;6.98;65.30;96238.09;5095404;28;20447;-38
2021/12/01 09:57:14;;;;;;;6.30;3.00;;;;;;;7.13;66.16;96250.06;5094676;28;20446;-38
2021/12/01 09:59:41;;;;;;;7.90;5.10;;;;;;;7.05;66.80;96248.53;5095235;28;20458;-38
2021/12/01 10:02:10;;;;;;;13.40;9.67;;;;;;;6.95;68.08;96250.94;5094993;28;20982;-38
2021/12/01 10:04:39;;;;;;;10.90;5.93;;;;;;;6.86;68.11;96253.09;5094923;28;20488;-38
2021/12/01 10:07:14;;;;;;;8.50;4.27;;;;;;;6.84;68.32;96249.06;5094843;28;20447;-38
2021/12/01 10:09:43;;;;;;;7.47;5.30;;;;;;;6.98;68.50;96251.28;5094804;28;20890;-38
2021/12/01 10:12:12;;;;;;;3.60;3.30;;;;;;;7.17;67.68;96248.56;5094992;28;21028;-38
2021/12/01 10:14:44;;;;;;;7.00;4.60;;;;;;;7.37;68.54;96254.31;5094767;28;20442;-38
2021/12/01 10:17:12;;;;;;;6.63;3.43;;;;;;;7.61;67.35;96243.75;5094682;28;20453;-38
2021/12/01 10:19:41;;;;;;;2.27;1.80;;;;;;;7.84;65.20;96231.56;5094962;28;20459;-38
2021/12/01 10:22:10;;;;;;;4.50;3.57;;;;;;;8.01;65.95;96227.16;5094974;28;20439;-38
2021/12/01 10:24:39;;;;;;;3.90;2.47;;;;;;;8.11;64.36;96231.84;5094648;28;20454;-38
2021/12/01 10:27:11;;;;;;;7.47;2.80;;;;;;;8.17;63.89;96234.38;5094474;28;20496;-39
2021/12/01 10:29:42;;;;;;;2.20;1.63;;;;;;;8.27;62.46;96231.13;5094540;28;21006;-39
2021/12/01 10:32:16;;;;;;;9.90;3.87;;;;;;;8.37;63.45;96225.22;5094387;28;20457;-39
2021/12/01 10:34:50;;;;;;;3.90;3.33;;;;;;;8.51;63.07;96226.56;5094377;28;20488;-38
2021/12/01 10:37:22;;;;;;;4.97;2.80;;;;;;;8.59;64.09;96228.84;5093991;28;20435;-39
2021/12/01 10:40:04;;;;;;;12.40;6.27;;;;;;;8.68;64.71;96215.22;5094286;28;20442;-39
2021/12/01 10:42:32;;;;;;;1.73;1.63;;;;;;;8.68;62.62;96215.22;5094100;28;20435;-39
2021/12/01 10:45:01;;;;;;;5.67;2.53;;;;;;;8.82;62.27;96227.13;5094171;28;20521;-39
2021/12/01 10:47:40;;;;;;;4.23;2.40;;;;;;;8.95;60.88;96233.97;5094003;28;20489;-39
2021/12/01 10:50:10;;;;;;;3.50;2.40;;;;;;;9.03;62.35;96230.91;5093771;28;20431;-39
2021/12/01 10:52:41;;;;;;;5.90;2.33;;;;;;;9.12;61.65;96231.31;5094110;28;20965;-39
2021/12/01 10:55:12;;;;;;;5.37;3.63;;;;;;;9.17;62.07;96213.66;5094334;28;20443;-39
2021/12/01 10:57:42;;;;;;;6.17;3.50;;;;;;;9.23;61.47;96225.94;5094509;28;20518;-39
2021/12/01 11:00:15;;;;;;;5.73;3.53;;;;;;;9.26;60.78;96222.00;5094222;28;20504;-39
2021/12/01 11:02:42;;;;;;;5.30;2.50;;;;;;;9.29;60.46;96216.25;5092923;28;20431;-39
2021/12/01 11:05:11;;;;;;;2.63;2.13;;;;;;;9.36;59.31;96224.81;5093854;28;20479;-39
2021/12/01 11:07:39;;;;;;;21.87;2.80;;;;;;;9.40;60.25;96228.59;5093778;28;20882;-39
2021/12/01 11:10:14;;;;;;;3.90;2.33;;;;;;;9.42;59.62;96221.19;5093670;28;20454;-39
2021/12/01 11:12:42;;;;;;;3.43;2.07;;;;;;;9.44;59.31;96213.00;5093629;28;20443;-39
2021/12/01 11:15:25;;;;;;;3.30;1.80;;;;;;;9.46;59.85;96216.19;5093490;28;20877;-39
2021/12/01 11:17:54;;;;;;;10.23;2.80;;;;;;;9.46;59.90;96205.59;5093608;28;20443;-38
2021/12/01 11:20:43;;;;;;;2.00;1.53;;;;;;;9.47;60.45;96206.44;5093847;28;20811;-38
2021/12/01 11:23:16;;;;;;;2.37;1.70;;;;;;;9.42;61.20;96202.66;5093867;28;20501;-38
2021/12/01 11:25:46;;;;;;;3.67;2.53;;;;;;;9.55;58.68;96198.03;5093498;28;20431;-39
2021/12/01 11:28:15;;;;;;;1.77;1.30;;;;;;;9.56;59.55;96189.06;5092692;28;20511;-38
2021/12/01 11:30:45;;;;;;;5.73;2.03;;;;;;;9.60;60.73;96198.13;5093405;28;20449;-39
2021/12/01 11:33:16;;;;;;;2.57;2.10;;;;;;;9.64;59.77;96191.28;5094148;28;20586;-38
2021/12/01 11:35:48;;;;;;;3.70;2.97;;;;;;;9.68;60.25;96192.41;5095415;28;20533;-38
2021/12/01 11:38:17;;;;;;;2.30;2.10;;;;;;;9.59;58.70;96172.66;5095196;28;20958;-38
2021/12/01 11:40:44;;;;;;;6.33;2.87;;;;;;;9.69;59.50;96166.69;5095495;28;20850;-38
2021/12/01 11:43:13;;;;;;;1.90;1.80;;;;;;;9.72;59.06;96151.13;5095422;28;20884;-38
2021/12/01 11:45:44;;;;;;;5.30;4.00;;;;;;;9.74;58.24;96159.59;5095334;28;20439;-38